createdAt,value
2018-09-23T00:00:20.187Z,0
2018-09-23T00:01:30.321Z,0
2018-09-23T00:02:40.452Z,0
2018-09-23T00:03:50.585Z,0
2018-09-23T00:05:00.167Z,0
2018-09-23T00:06:10.304Z,0
2018-09-23T00:07:20.449Z,0
2018-09-23T00:08:30.581Z,0
2018-09-23T00:09:40.711Z,0
2018-09-23T00:10:50.841Z,0
2018-09-23T00:12:00.975Z,0
2018-09-23T00:13:11.116Z,0
2018-09-23T00:14:20.974Z,0
2018-09-23T00:15:31.109Z,0
2018-09-23T00:16:41.245Z,0
2018-09-23T00:17:51.379Z,0
2018-09-23T00:19:01.515Z,0
2018-09-23T00:20:10.874Z,0
2018-09-23T00:21:21.006Z,0
2018-09-23T00:22:31.039Z,0
2018-09-23T00:23:40.902Z,0
2018-09-23T00:24:50.765Z,0
2018-09-23T00:26:00.645Z,0
2018-09-23T00:27:10.518Z,0
2018-09-23T00:28:20.652Z,0
2018-09-23T00:29:30.787Z,0
2018-09-23T00:30:40.648Z,0
2018-09-23T00:31:50.832Z,0
2018-09-23T00:33:00.714Z,0
2018-09-23T00:34:10.848Z,0
2018-09-23T00:35:20.979Z,0
2018-09-23T00:36:30.837Z,0
2018-09-23T00:37:40.969Z,0
2018-09-23T00:38:51.097Z,0
2018-09-23T00:40:01.235Z,0
2018-09-23T00:41:11.434Z,0
2018-09-23T00:42:21.569Z,0
2018-09-23T00:43:31.446Z,0
2018-09-23T00:44:41.575Z,0
2018-09-23T00:45:51.432Z,0
2018-09-23T00:47:01.298Z,0
2018-09-23T00:48:10.879Z,0
2018-09-23T00:49:20.510Z,0
2018-09-23T00:50:30.642Z,0
2018-09-23T00:51:40.821Z,0
2018-09-23T00:52:50.684Z,0
2018-09-23T00:54:00.537Z,0
2018-09-23T00:55:10.395Z,0
2018-09-23T00:56:20.249Z,0
2018-09-23T00:57:29.833Z,0
2018-09-23T00:58:39.693Z,0
2018-09-23T00:59:49.832Z,0
2018-09-23T01:00:59.688Z,0
2018-09-23T01:02:09.274Z,0
2018-09-23T01:03:19.409Z,0
2018-09-23T01:04:29.548Z,0
2018-09-23T01:05:39.679Z,0
2018-09-23T01:06:49.582Z,0
2018-09-23T01:07:59.717Z,0
2018-09-23T01:09:09.578Z,0
2018-09-23T01:10:19.718Z,0
2018-09-23T01:11:29.846Z,0
2018-09-23T01:12:39.708Z,0
2018-09-23T01:13:49.841Z,0
2018-09-23T01:14:59.970Z,0
2018-09-23T01:16:09.827Z,0
2018-09-23T01:17:19.692Z,0
2018-09-23T01:18:29.652Z,0
2018-09-23T01:19:39.785Z,0
2018-09-23T01:20:49.368Z,0
2018-09-23T01:21:59.225Z,0
2018-09-23T01:23:09.081Z,0
2018-09-23T01:24:18.671Z,0
2018-09-23T01:25:28.803Z,0
2018-09-23T01:26:38.956Z,0
2018-09-23T01:27:49.090Z,0
2018-09-23T01:28:58.952Z,0
2018-09-23T01:30:08.539Z,0
2018-09-23T01:31:18.669Z,0
2018-09-23T01:32:28.527Z,0
2018-09-23T01:33:38.396Z,0
2018-09-23T01:34:48.526Z,0
2018-09-23T01:35:58.657Z,0
2018-09-23T01:37:08.513Z,0
2018-09-23T01:38:18.657Z,0
2018-09-23T01:39:28.521Z,0
2018-09-23T01:40:38.653Z,0
2018-09-23T01:41:48.845Z,0
2018-09-23T01:42:58.984Z,0
2018-09-23T01:44:08.886Z,0
2018-09-23T01:45:19.024Z,0
2018-09-23T01:46:29.166Z,0
2018-09-23T01:47:39.071Z,0
2018-09-23T01:48:49.200Z,0
2018-09-23T01:49:59.056Z,0
2018-09-23T01:51:08.910Z,0
2018-09-23T01:52:19.043Z,0
2018-09-23T01:53:28.903Z,0
2018-09-23T01:54:38.485Z,0
2018-09-23T01:55:48.618Z,0
2018-09-23T01:56:58.521Z,0
2018-09-23T01:58:08.109Z,0
2018-09-23T01:59:17.419Z,0
2018-09-23T02:00:27.561Z,0
2018-09-23T02:01:37.418Z,0
2018-09-23T02:02:47.560Z,0
2018-09-23T02:03:57.692Z,0
2018-09-23T02:05:07.323Z,0
2018-09-23T02:06:17.185Z,0
2018-09-23T02:07:27.314Z,0
2018-09-23T02:08:37.175Z,0
2018-09-23T02:09:47.314Z,0
2018-09-23T02:10:57.493Z,0
2018-09-23T02:12:06.801Z,0
2018-09-23T02:13:16.938Z,0
2018-09-23T02:14:27.073Z,0
2018-09-23T02:15:36.382Z,0
2018-09-23T02:16:46.013Z,0
2018-09-23T02:17:55.869Z,0
2018-09-23T02:19:06.003Z,0
2018-09-23T02:20:16.134Z,0
2018-09-23T02:21:26.636Z,0
2018-09-23T02:22:36.553Z,0
2018-09-23T02:23:46.413Z,0
2018-09-23T02:24:56.548Z,0
2018-09-23T02:26:06.684Z,0
2018-09-23T02:27:16.876Z,0
2018-09-23T02:28:27.066Z,0
2018-09-23T02:29:37.197Z,0
2018-09-23T02:30:47.333Z,0
2018-09-23T02:31:56.646Z,0
2018-09-23T02:33:06.505Z,0
2018-09-23T02:34:16.641Z,0
2018-09-23T02:35:26.554Z,0
2018-09-23T02:36:36.417Z,0
2018-09-23T02:37:46.005Z,0
2018-09-23T02:38:55.864Z,0
2018-09-23T02:40:05.731Z,0
2018-09-23T02:41:15.893Z,0
2018-09-23T02:42:26.031Z,0
2018-09-23T02:43:36.167Z,0
2018-09-23T02:44:46.025Z,0
2018-09-23T02:45:59.294Z,0
2018-09-23T02:47:08.876Z,0
2018-09-23T02:48:19.004Z,0
2018-09-23T02:49:28.595Z,0
2018-09-23T02:50:38.725Z,0
2018-09-23T02:51:48.631Z,0
2018-09-23T02:52:58.770Z,0
2018-09-23T02:54:08.906Z,0
2018-09-23T02:55:19.085Z,0
2018-09-23T02:56:29.221Z,0
2018-09-23T02:57:39.084Z,0
2018-09-23T02:58:49.221Z,0
2018-09-23T02:59:59.091Z,0
2018-09-23T03:01:09.222Z,0
2018-09-23T03:02:19.393Z,0
2018-09-23T03:03:29.538Z,0
2018-09-23T03:04:39.669Z,0
2018-09-23T03:05:49.812Z,0
2018-09-23T03:06:59.396Z,0
2018-09-23T03:08:08.979Z,0
2018-09-23T03:09:18.562Z,0
2018-09-23T03:10:28.701Z,0
2018-09-23T03:11:38.839Z,0
2018-09-23T03:12:48.696Z,0
2018-09-23T03:13:58.831Z,0
2018-09-23T03:15:08.691Z,0
2018-09-23T03:16:18.825Z,0
2018-09-23T03:17:28.958Z,0
2018-09-23T03:18:39.098Z,0
2018-09-23T03:19:48.680Z,0
2018-09-23T03:20:58.315Z,0
2018-09-23T03:22:08.451Z,0
2018-09-23T03:23:18.313Z,0
2018-09-23T03:24:28.175Z,0
2018-09-23T03:25:38.327Z,0
2018-09-23T03:26:48.463Z,0
2018-09-23T03:27:58.056Z,0
2018-09-23T03:29:07.925Z,0
2018-09-23T03:30:18.072Z,0
2018-09-23T03:31:28.222Z,0
2018-09-23T03:32:38.152Z,0
2018-09-23T03:33:48.013Z,0
2018-09-23T03:34:57.320Z,0
2018-09-23T03:36:07.455Z,0
2018-09-23T03:37:17.596Z,0
2018-09-23T03:38:27.795Z,0
2018-09-23T03:39:37.664Z,0
2018-09-23T03:40:47.806Z,0
2018-09-23T03:41:57.968Z,0
2018-09-23T03:43:08.120Z,0
2018-09-23T03:44:18.304Z,0
2018-09-23T03:45:28.434Z,0
2018-09-23T03:46:38.292Z,0
2018-09-23T03:47:48.432Z,0
2018-09-23T03:48:58.578Z,0
2018-09-23T03:50:08.163Z,0
2018-09-23T03:51:18.308Z,0
2018-09-23T03:52:28.169Z,0
2018-09-23T03:53:38.301Z,0
2018-09-23T03:54:48.435Z,0
2018-09-23T03:55:58.567Z,0
2018-09-23T03:57:08.715Z,0
2018-09-23T03:58:19.149Z,0
2018-09-23T03:59:29.291Z,0
2018-09-23T04:00:39.153Z,0
2018-09-23T04:01:49.288Z,0
2018-09-23T04:02:59.433Z,0
2018-09-23T04:04:09.309Z,0
2018-09-23T04:05:19.172Z,0
2018-09-23T04:06:29.310Z,0
2018-09-23T04:07:39.217Z,0
2018-09-23T04:08:49.362Z,0
2018-09-23T04:09:59.499Z,0
2018-09-23T04:11:09.102Z,0
2018-09-23T04:12:19.546Z,0
2018-09-23T04:13:28.865Z,0
2018-09-23T04:14:38.998Z,0
2018-09-23T04:15:49.127Z,0
2018-09-23T04:16:59.259Z,0
2018-09-23T04:18:09.122Z,0
2018-09-23T04:19:19.353Z,0
2018-09-23T04:20:29.219Z,0
2018-09-23T04:21:38.811Z,0
2018-09-23T04:22:48.686Z,0
2018-09-23T04:23:58.549Z,0
2018-09-23T04:25:08.797Z,0
2018-09-23T04:26:18.949Z,0
2018-09-23T04:27:29.093Z,0
2018-09-23T04:28:39.226Z,0
2018-09-23T04:29:49.377Z,0
2018-09-23T04:30:59.285Z,0
2018-09-23T04:32:09.421Z,0
2018-09-23T04:33:19.551Z,0
2018-09-23T04:34:29.409Z,0
2018-09-23T04:35:39.276Z,0
2018-09-23T04:36:49.425Z,0
2018-09-23T04:37:59.553Z,0
2018-09-23T04:39:09.428Z,0
2018-09-23T04:40:18.734Z,0
2018-09-23T04:41:28.867Z,0
2018-09-23T04:42:39.049Z,0
2018-09-23T04:43:49.186Z,0
2018-09-23T04:44:59.606Z,0
2018-09-23T04:46:09.755Z,0
2018-09-23T04:47:19.613Z,0
2018-09-23T04:48:29.254Z,0
2018-09-23T04:49:38.833Z,0
2018-09-23T04:50:48.415Z,0
2018-09-23T04:51:58.269Z,0
2018-09-23T04:53:08.399Z,0
2018-09-23T04:54:18.317Z,5
2018-09-23T04:55:28.183Z,5
2018-09-23T04:56:38.113Z,5
2018-09-23T04:57:48.250Z,5
2018-09-23T04:58:58.102Z,5
2018-09-23T05:00:07.732Z,5
2018-09-23T05:01:17.583Z,5
2018-09-23T05:02:27.166Z,5
2018-09-23T05:03:37.294Z,10
2018-09-23T05:04:47.165Z,10
2018-09-23T05:05:56.522Z,10
2018-09-23T05:07:06.116Z,10
2018-09-23T05:08:15.977Z,15
2018-09-23T05:09:25.572Z,15
2018-09-23T05:10:35.433Z,15
2018-09-23T05:11:45.287Z,20
2018-09-23T05:12:55.420Z,20
2018-09-23T05:14:05.371Z,20
2018-09-23T05:15:15.521Z,25
2018-09-23T05:16:25.104Z,25
2018-09-23T05:17:34.735Z,30
2018-09-23T05:18:44.868Z,35
2018-09-23T05:19:54.725Z,30
2018-09-23T05:21:04.031Z,35
2018-09-23T05:22:14.172Z,40
2018-09-23T05:23:24.354Z,45
2018-09-23T05:24:34.219Z,50
2018-09-23T05:25:43.801Z,50
2018-09-23T05:26:53.660Z,55
2018-09-23T05:28:03.799Z,60
2018-09-23T05:29:13.984Z,60
2018-09-23T05:30:23.568Z,65
2018-09-23T05:31:33.424Z,65
2018-09-23T05:32:43.566Z,65
2018-09-23T05:33:53.695Z,65
2018-09-23T05:35:03.826Z,65
2018-09-23T05:36:13.963Z,65
2018-09-23T05:37:23.543Z,65
2018-09-23T05:38:33.676Z,65
2018-09-23T05:39:43.807Z,70
2018-09-23T05:40:53.988Z,70
2018-09-23T05:42:03.847Z,75
2018-09-23T05:43:13.982Z,75
2018-09-23T05:44:23.856Z,75
2018-09-23T05:45:33.715Z,75
2018-09-23T05:46:43.577Z,75
2018-09-23T05:47:53.433Z,75
2018-09-23T05:49:03.573Z,70
2018-09-23T05:50:13.707Z,70
2018-09-23T05:51:23.841Z,70
2018-09-23T05:52:33.744Z,70
2018-09-23T05:53:43.880Z,70
2018-09-23T05:54:54.008Z,70
2018-09-23T05:56:03.863Z,70
2018-09-23T05:57:13.452Z,70
2018-09-23T05:58:23.376Z,65
2018-09-23T05:59:33.520Z,70
2018-09-23T06:00:43.374Z,70
2018-09-23T06:01:53.236Z,70
2018-09-23T06:03:03.183Z,70
2018-09-23T06:04:12.829Z,65
2018-09-23T06:05:22.690Z,65
2018-09-23T06:06:32.552Z,65
2018-09-23T06:07:42.683Z,60
2018-09-23T06:08:52.832Z,65
2018-09-23T06:10:02.571Z,65
2018-09-23T06:11:12.691Z,65
2018-09-23T06:12:22.563Z,65
2018-09-23T06:13:32.698Z,65
2018-09-23T06:14:42.575Z,70
2018-09-23T06:15:52.709Z,70
2018-09-23T06:17:02.574Z,70
2018-09-23T06:18:12.188Z,70
2018-09-23T06:19:22.045Z,75
2018-09-23T06:20:31.640Z,75
2018-09-23T06:21:41.532Z,80
2018-09-23T06:22:51.667Z,75
2018-09-23T06:24:01.528Z,80
2018-09-23T06:25:11.629Z,80
2018-09-23T06:26:21.780Z,80
2018-09-23T06:27:31.975Z,85
2018-09-23T06:28:41.278Z,85
2018-09-23T06:29:51.408Z,80
2018-09-23T06:31:01.539Z,80
2018-09-23T06:32:11.403Z,80
2018-09-23T06:33:21.308Z,80
2018-09-23T06:34:31.454Z,80
2018-09-23T06:35:41.323Z,80
2018-09-23T06:36:50.931Z,80
2018-09-23T06:38:01.078Z,80
2018-09-23T06:39:10.712Z,85
2018-09-23T06:40:20.027Z,85
2018-09-23T06:41:30.157Z,90
2018-09-23T06:42:40.292Z,95
2018-09-23T06:43:50.369Z,100
2018-09-23T06:45:00.539Z,110
2018-09-23T06:46:10.655Z,115
2018-09-23T06:47:20.822Z,120
2018-09-23T06:48:30.679Z,120
2018-09-23T06:49:40.819Z,120
2018-09-23T06:50:51.002Z,125
2018-09-23T06:52:01.132Z,130
2018-09-23T06:53:10.992Z,140
2018-09-23T06:54:21.126Z,150
2018-09-23T06:55:31.265Z,155
2018-09-23T06:56:41.182Z,165
2018-09-23T06:57:51.043Z,175
2018-09-23T06:59:00.961Z,185
2018-09-23T07:00:11.109Z,195
2018-09-23T07:01:21.248Z,200
2018-09-23T07:02:31.381Z,210
2018-09-23T07:03:41.241Z,220
2018-09-23T07:04:51.145Z,225
2018-09-23T07:06:00.683Z,225
2018-09-23T07:07:10.819Z,220
2018-09-23T07:08:20.981Z,215
2018-09-23T07:09:31.130Z,215
2018-09-23T07:10:41.491Z,210
2018-09-23T07:11:51.346Z,205
2018-09-23T07:13:01.486Z,200
2018-09-23T07:14:11.123Z,190
2018-09-23T07:15:21.259Z,195
2018-09-23T07:16:31.115Z,195
2018-09-23T07:17:40.971Z,195
2018-09-23T07:18:51.106Z,195
2018-09-23T07:20:01.286Z,195
2018-09-23T07:21:11.426Z,190
2018-09-23T07:22:21.006Z,185
2018-09-23T07:23:30.883Z,175
2018-09-23T07:24:40.752Z,175
2018-09-23T07:25:50.939Z,175
2018-09-23T07:27:00.798Z,170
2018-09-23T07:28:10.940Z,175
2018-09-23T07:29:20.799Z,170
2018-09-23T07:30:30.931Z,170
2018-09-23T07:31:41.122Z,170
2018-09-23T07:32:51.261Z,170
2018-09-23T07:34:01.120Z,170
2018-09-23T07:35:10.985Z,170
2018-09-23T07:36:20.842Z,170
2018-09-23T07:37:30.757Z,170
2018-09-23T07:38:40.621Z,170
2018-09-23T07:39:50.736Z,170
2018-09-23T07:41:00.931Z,165
2018-09-23T07:42:10.520Z,165
2018-09-23T07:43:20.157Z,165
2018-09-23T07:44:29.740Z,160
2018-09-23T07:45:39.889Z,160
2018-09-23T07:46:49.748Z,160
2018-09-23T07:47:59.829Z,165
2018-09-23T07:49:10.044Z,165
2018-09-23T07:50:20.178Z,170
2018-09-23T07:51:30.044Z,170
2018-09-23T07:52:40.177Z,175
2018-09-23T07:53:50.031Z,180
2018-09-23T07:54:59.666Z,180
2018-09-23T07:56:09.697Z,185
2018-09-23T07:57:19.844Z,190
2018-09-23T07:58:29.982Z,195
2018-09-23T07:59:40.125Z,200
2018-09-23T08:00:50.036Z,205
2018-09-23T08:02:00.180Z,205
2018-09-23T08:03:10.041Z,205
2018-09-23T08:04:20.177Z,205
2018-09-23T08:05:30.040Z,205
2018-09-23T08:06:39.956Z,210
2018-09-23T08:07:49.538Z,210
2018-09-23T08:08:59.730Z,210
2018-09-23T08:10:09.876Z,210
2018-09-23T08:11:20.008Z,215
2018-09-23T08:12:30.662Z,215
2018-09-23T08:13:42.127Z,215
2018-09-23T08:14:54.981Z,215
2018-09-23T08:16:05.237Z,220
2018-09-23T08:17:15.342Z,225
2018-09-23T08:18:25.537Z,230
2018-09-23T08:19:36.486Z,235
2018-09-23T08:20:47.308Z,240
2018-09-23T08:21:57.176Z,245
2018-09-23T08:23:06.808Z,250
2018-09-23T08:24:16.786Z,255
2018-09-23T08:25:27.411Z,260
2018-09-23T08:26:37.997Z,265
2018-09-23T08:27:48.222Z,265
2018-09-23T08:28:58.090Z,270
2018-09-23T08:30:07.125Z,275
2018-09-23T08:31:17.266Z,285
2018-09-23T08:32:27.435Z,290
2018-09-23T08:33:37.570Z,300
2018-09-23T08:34:47.430Z,305
2018-09-23T08:35:57.567Z,305
2018-09-23T08:37:07.197Z,305
2018-09-23T08:38:17.337Z,305
2018-09-23T08:39:27.497Z,300
2018-09-23T08:40:37.655Z,295
2018-09-23T08:41:47.792Z,290
2018-09-23T08:42:57.972Z,285
2018-09-23T08:44:08.179Z,280
2018-09-23T08:45:18.055Z,280
2018-09-23T08:46:28.190Z,285
2018-09-23T08:47:38.050Z,290
2018-09-23T08:48:48.189Z,300
2018-09-23T08:49:58.330Z,310
2018-09-23T08:51:08.197Z,315
2018-09-23T08:52:18.055Z,320
2018-09-23T08:53:28.268Z,325
2018-09-23T08:54:38.135Z,325
2018-09-23T08:55:48.275Z,330
2018-09-23T08:56:58.422Z,330
2018-09-23T08:58:08.570Z,330
2018-09-23T08:59:18.737Z,330
2018-09-23T09:00:28.889Z,325
2018-09-23T09:01:38.755Z,325
2018-09-23T09:02:48.898Z,330
2018-09-23T09:03:58.920Z,330
2018-09-23T09:05:08.228Z,330
2018-09-23T09:06:18.367Z,330
2018-09-23T09:07:28.507Z,330
2018-09-23T09:08:38.420Z,330
2018-09-23T09:09:48.563Z,325
2018-09-23T09:10:58.223Z,325
2018-09-23T09:12:07.967Z,325
2018-09-23T09:13:17.279Z,315
2018-09-23T09:14:27.426Z,310
2018-09-23T09:15:37.291Z,310
2018-09-23T09:16:48.231Z,300
2018-09-23T09:17:58.101Z,295
2018-09-23T09:19:08.239Z,290
2018-09-23T09:20:18.099Z,285
2018-09-23T09:21:28.246Z,285
2018-09-23T09:22:38.906Z,290
2018-09-23T09:23:48.771Z,295
2018-09-23T09:24:58.910Z,300
2018-09-23T09:26:09.046Z,305
2018-09-23T09:27:19.245Z,315
2018-09-23T09:28:29.684Z,325
2018-09-23T09:29:39.546Z,330
2018-09-23T09:30:49.690Z,345
2018-09-23T09:31:59.278Z,345
2018-09-23T09:33:09.427Z,355
2018-09-23T09:34:19.617Z,355
2018-09-23T09:35:29.300Z,350
2018-09-23T09:36:39.444Z,340
2018-09-23T09:37:49.595Z,325
2018-09-23T09:38:59.753Z,320
2018-09-23T09:40:09.343Z,315
2018-09-23T09:41:19.213Z,320
2018-09-23T09:42:28.254Z,330
2018-09-23T09:43:38.404Z,335
2018-09-23T09:44:48.547Z,340
2018-09-23T09:45:58.686Z,345
2018-09-23T09:47:08.552Z,345
2018-09-23T09:48:18.694Z,360
2018-09-23T09:49:28.830Z,370
2018-09-23T09:50:38.980Z,380
2018-09-23T09:51:48.848Z,380
2018-09-23T09:52:58.165Z,380
2018-09-23T09:54:08.027Z,385
2018-09-23T09:55:18.336Z,390
2018-09-23T09:56:28.252Z,400
2018-09-23T09:57:37.842Z,415
2018-09-23T09:58:47.439Z,425
2018-09-23T09:59:57.580Z,435
2018-09-23T10:01:07.167Z,440
2018-09-23T10:02:17.034Z,445
2018-09-23T10:03:27.174Z,440
2018-09-23T10:04:37.050Z,445
2018-09-23T10:05:47.195Z,445
2018-09-23T10:06:57.058Z,445
2018-09-23T10:08:06.368Z,450
2018-09-23T10:09:16.242Z,450
2018-09-23T10:10:26.381Z,450
2018-09-23T10:11:36.885Z,450
2018-09-23T10:12:47.102Z,450
2018-09-23T10:13:56.965Z,450
2018-09-23T10:15:06.556Z,455
2018-09-23T10:16:16.699Z,455
2018-09-23T10:17:26.564Z,455
2018-09-23T10:18:36.425Z,455
2018-09-23T10:19:46.666Z,460
2018-09-23T10:20:56.594Z,465
2018-09-23T10:22:06.461Z,465
2018-09-23T10:23:16.683Z,465
2018-09-23T10:24:26.640Z,460
2018-09-23T10:25:36.267Z,460
2018-09-23T10:26:46.410Z,460
2018-09-23T10:27:55.999Z,460
2018-09-23T10:29:06.137Z,460
2018-09-23T10:30:16.298Z,455
2018-09-23T10:31:27.377Z,455
2018-09-23T10:32:37.331Z,460
2018-09-23T10:33:47.476Z,465
2018-09-23T10:34:57.630Z,475
2018-09-23T10:36:08.017Z,475
2018-09-23T10:37:18.172Z,470
2018-09-23T10:38:27.764Z,465
2018-09-23T10:39:37.915Z,465
2018-09-23T10:40:48.064Z,460
2018-09-23T10:41:58.203Z,460
2018-09-23T10:43:08.071Z,455
2018-09-23T10:44:18.096Z,455
2018-09-23T10:45:28.234Z,460
2018-09-23T10:46:38.377Z,455
2018-09-23T10:47:48.242Z,455
2018-09-23T10:48:58.398Z,460
2018-09-23T10:50:08.298Z,465
2018-09-23T10:51:18.484Z,465
2018-09-23T10:52:28.351Z,470
2018-09-23T10:53:37.663Z,480
2018-09-23T10:54:47.803Z,490
2018-09-23T10:55:57.393Z,500
2018-09-23T10:57:06.984Z,510
2018-09-23T10:58:16.858Z,555
2018-09-23T10:59:26.947Z,605
2018-09-23T11:00:37.100Z,640
2018-09-23T11:01:47.249Z,630
2018-09-23T11:02:57.116Z,660
2018-09-23T11:04:08.396Z,610
2018-09-23T11:05:18.608Z,685
2018-09-23T11:06:28.749Z,680
2018-09-23T11:07:39.039Z,580
2018-09-23T11:08:48.907Z,555
2018-09-23T11:09:59.473Z,555
2018-09-23T11:11:09.342Z,550
2018-09-23T11:12:19.500Z,575
2018-09-23T11:13:29.660Z,610
2018-09-23T11:14:39.809Z,720
2018-09-23T11:15:49.734Z,765
2018-09-23T11:16:59.943Z,760
2018-09-23T11:18:09.541Z,665
2018-09-23T11:19:19.407Z,660
2018-09-23T11:20:29.272Z,650
2018-09-23T11:21:38.872Z,640
2018-09-23T11:22:49.012Z,605
2018-09-23T11:23:58.877Z,575
2018-09-23T11:25:09.019Z,570
2018-09-23T11:26:18.612Z,590
2018-09-23T11:27:28.765Z,630
2018-09-23T11:28:38.905Z,635
2018-09-23T11:29:48.777Z,595
2018-09-23T11:30:58.585Z,605
2018-09-23T11:32:08.737Z,555
2018-09-23T11:33:18.883Z,510
2018-09-23T11:34:28.748Z,495
2018-09-23T11:35:38.615Z,460
2018-09-23T11:36:48.764Z,435
2018-09-23T11:37:58.911Z,425
2018-09-23T11:39:08.779Z,420
2018-09-23T11:40:18.930Z,415
2018-09-23T11:41:29.078Z,410
2018-09-23T11:42:39.272Z,400
2018-09-23T11:43:49.420Z,390
2018-09-23T11:44:59.290Z,390
2018-09-23T11:46:09.156Z,380
2018-09-23T11:47:19.306Z,365
2018-09-23T11:48:28.629Z,355
2018-09-23T11:49:38.227Z,345
2018-09-23T11:50:48.371Z,340
2018-09-23T11:51:58.242Z,325
2018-09-23T11:53:08.110Z,320
2018-09-23T11:54:17.974Z,325
2018-09-23T11:55:27.856Z,330
2018-09-23T11:56:38.006Z,335
2018-09-23T11:57:48.153Z,340
2018-09-23T11:58:58.850Z,340
2018-09-23T12:00:08.772Z,345
2018-09-23T12:01:18.362Z,340
2018-09-23T12:02:28.716Z,340
2018-09-23T12:03:38.308Z,335
2018-09-23T12:04:48.184Z,330
2018-09-23T12:05:58.329Z,325
2018-09-23T12:07:08.476Z,320
2018-09-23T12:08:18.343Z,315
2018-09-23T12:09:28.221Z,310
2018-09-23T12:10:38.776Z,305
2018-09-23T12:11:48.966Z,300
2018-09-23T12:12:59.114Z,305
2018-09-23T12:14:08.995Z,315
2018-09-23T12:15:18.860Z,350
2018-09-23T12:16:29.008Z,450
2018-09-23T12:17:38.596Z,490
2018-09-23T12:18:48.502Z,525
2018-09-23T12:19:58.646Z,625
2018-09-23T12:21:08.245Z,480
2018-09-23T12:22:18.401Z,455
2018-09-23T12:23:28.546Z,480
2018-09-23T12:24:38.691Z,515
2018-09-23T12:25:49.905Z,955
2018-09-23T12:26:59.655Z,760
2018-09-23T12:28:09.520Z,995
2018-09-23T12:29:19.545Z,975
2018-09-23T12:30:29.695Z,905
2018-09-23T12:31:39.563Z,615
2018-09-23T12:32:49.428Z,555
2018-09-23T12:33:59.574Z,520
2018-09-23T12:35:09.441Z,525
2018-09-23T12:36:19.581Z,500
2018-09-23T12:37:29.456Z,465
2018-09-23T12:38:39.338Z,465
2018-09-23T12:39:49.747Z,465
2018-09-23T12:40:59.609Z,455
2018-09-23T12:42:09.476Z,445
2018-09-23T12:43:19.616Z,445
2018-09-23T12:44:29.760Z,415
2018-09-23T12:45:39.625Z,380
2018-09-23T12:46:49.506Z,370
2018-09-23T12:47:59.385Z,340
2018-09-23T12:49:09.258Z,235
2018-09-23T12:50:19.398Z,195
2018-09-23T12:51:28.722Z,170
2018-09-23T12:52:38.866Z,150
2018-09-23T12:53:48.730Z,130
2018-09-23T12:54:58.874Z,115
2018-09-23T12:56:08.465Z,95
2018-09-23T12:57:18.611Z,80
2018-09-23T12:58:28.197Z,70
2018-09-23T12:59:38.338Z,65
2018-09-23T13:00:47.928Z,65
2018-09-23T13:01:58.069Z,65
2018-09-23T13:03:08.209Z,65
2018-09-23T13:04:18.349Z,65
2018-09-23T13:05:28.215Z,65
2018-09-23T13:06:38.361Z,65
2018-09-23T13:07:48.500Z,65
2018-09-23T13:08:58.095Z,65
2018-09-23T13:10:07.971Z,70
2018-09-23T13:11:17.568Z,70
2018-09-23T13:12:27.709Z,75
2018-09-23T13:13:37.573Z,80
2018-09-23T13:14:47.165Z,90
2018-09-23T13:15:57.029Z,100
2018-09-23T13:17:06.623Z,110
2018-09-23T13:18:17.148Z,130
2018-09-23T13:19:27.677Z,150
2018-09-23T13:20:37.884Z,170
2018-09-23T13:21:47.193Z,195
2018-09-23T13:22:57.338Z,220
2018-09-23T13:24:07.484Z,245
2018-09-23T13:25:17.340Z,275
2018-09-23T13:26:27.485Z,300
2018-09-23T13:27:37.620Z,330
2018-09-23T13:28:47.804Z,360
2018-09-23T13:29:57.978Z,390
2018-09-23T13:31:08.115Z,415
2018-09-23T13:32:17.979Z,430
2018-09-23T13:33:27.838Z,430
2018-09-23T13:34:37.428Z,425
2018-09-23T13:35:47.291Z,395
2018-09-23T13:36:57.149Z,360
2018-09-23T13:38:07.009Z,325
2018-09-23T13:39:16.874Z,285
2018-09-23T13:40:26.186Z,235
2018-09-23T13:41:35.776Z,195
2018-09-23T13:42:45.920Z,165
2018-09-23T13:43:55.780Z,140
2018-09-23T13:45:05.699Z,125
2018-09-23T13:46:15.839Z,110
2018-09-23T13:47:25.423Z,100
2018-09-23T13:48:35.011Z,95
2018-09-23T13:49:44.322Z,90
2018-09-23T13:50:54.205Z,85
2018-09-23T13:52:04.071Z,85
2018-09-23T13:53:13.935Z,85
2018-09-23T13:54:24.260Z,85
2018-09-23T13:55:34.455Z,85
2018-09-23T13:56:44.324Z,90
2018-09-23T13:57:54.464Z,95
2018-09-23T13:59:03.778Z,100
2018-09-23T14:00:13.363Z,105
2018-09-23T14:01:23.499Z,115
2018-09-23T14:02:33.655Z,120
2018-09-23T14:03:43.795Z,130
2018-09-23T14:04:54.050Z,135
2018-09-23T14:06:03.921Z,145
2018-09-23T14:07:14.058Z,150
2018-09-23T14:08:23.917Z,150
2018-09-23T14:09:34.050Z,155
2018-09-23T14:10:43.908Z,165
2018-09-23T14:11:53.772Z,195
2018-09-23T14:13:03.634Z,230
2018-09-23T14:14:13.596Z,290
2018-09-23T14:15:23.459Z,350
2018-09-23T14:16:33.318Z,345
2018-09-23T14:17:43.456Z,340
2018-09-23T14:18:53.588Z,345
2018-09-23T14:20:03.501Z,355
2018-09-23T14:21:13.646Z,365
2018-09-23T14:22:23.783Z,370
2018-09-23T14:23:33.647Z,465
2018-09-23T14:24:43.783Z,365
2018-09-23T14:25:53.931Z,365
2018-09-23T14:27:03.795Z,450
2018-09-23T14:28:13.657Z,420
2018-09-23T14:29:23.517Z,410
2018-09-23T14:30:33.378Z,535
2018-09-23T14:31:42.974Z,1045
2018-09-23T14:32:52.845Z,1365
2018-09-23T14:34:02.982Z,1590
2018-09-23T14:35:12.846Z,1730
2018-09-23T14:36:23.210Z,1160
2018-09-23T14:37:33.408Z,1455
2018-09-23T14:38:43.553Z,1895
2018-09-23T14:39:53.429Z,1830
2018-09-23T14:41:03.572Z,1950
2018-09-23T14:42:14.075Z,1885
2018-09-23T14:43:24.224Z,1680
2018-09-23T14:44:34.359Z,790
2018-09-23T14:45:44.220Z,580
2018-09-23T14:46:54.083Z,1360
2018-09-23T14:48:03.680Z,665
2018-09-23T14:49:13.060Z,675
2018-09-23T14:50:23.224Z,305
2018-09-23T14:51:33.089Z,230
2018-09-23T14:52:42.990Z,185
2018-09-23T14:53:53.142Z,150
2018-09-23T14:55:03.364Z,120
2018-09-23T14:56:12.665Z,100
2018-09-23T14:57:22.815Z,85
2018-09-23T14:58:32.691Z,75
2018-09-23T14:59:42.854Z,65
2018-09-23T15:00:53.041Z,60
2018-09-23T15:02:03.188Z,55
2018-09-23T15:03:13.326Z,55
2018-09-23T15:04:23.192Z,55
2018-09-23T15:05:33.357Z,55
2018-09-23T15:06:42.951Z,55
2018-09-23T15:07:53.090Z,55
2018-09-23T15:09:03.241Z,55
2018-09-23T15:10:13.106Z,50
2018-09-23T15:11:23.243Z,50
2018-09-23T15:12:33.114Z,50
2018-09-23T15:13:43.582Z,45
2018-09-23T15:14:53.818Z,45
2018-09-23T15:16:03.703Z,50
2018-09-23T15:17:13.841Z,50
2018-09-23T15:18:24.032Z,50
2018-09-23T15:19:34.169Z,50
2018-09-23T15:20:44.321Z,55
2018-09-23T15:21:54.864Z,60
2018-09-23T15:23:05.064Z,65
2018-09-23T15:24:15.205Z,70
2018-09-23T15:25:25.343Z,75
2018-09-23T15:26:35.199Z,95
2018-09-23T15:27:44.789Z,310
2018-09-23T15:28:54.921Z,245
2018-09-23T15:30:04.504Z,215
2018-09-23T15:31:14.636Z,195
2018-09-23T15:32:24.780Z,180
2018-09-23T15:33:34.676Z,215
2018-09-23T15:34:44.807Z,230
2018-09-23T15:35:54.809Z,235
2018-09-23T15:37:04.684Z,240
2018-09-23T15:38:14.814Z,255
2018-09-23T15:39:24.950Z,275
2018-09-23T15:40:35.089Z,280
2018-09-23T15:41:45.231Z,275
2018-09-23T15:42:55.103Z,265
2018-09-23T15:44:05.243Z,245
2018-09-23T15:45:14.833Z,225
2018-09-23T15:46:24.989Z,210
2018-09-23T15:47:34.576Z,200
2018-09-23T15:48:44.712Z,175
2018-09-23T15:49:54.852Z,160
2018-09-23T15:51:04.992Z,145
2018-09-23T15:52:15.680Z,125
2018-09-23T15:53:25.889Z,115
2018-09-23T15:54:35.473Z,105
2018-09-23T15:55:45.607Z,95
2018-09-23T15:56:55.779Z,90
2018-09-23T15:58:06.036Z,95
2018-09-23T15:59:16.194Z,90
2018-09-23T16:00:26.338Z,90
2018-09-23T16:01:35.924Z,85
2018-09-23T16:02:45.829Z,85
2018-09-23T16:03:55.411Z,80
2018-09-23T16:05:04.993Z,80
2018-09-23T16:06:15.136Z,80
2018-09-23T16:07:25.004Z,80
2018-09-23T16:08:35.158Z,75
2018-09-23T16:09:45.017Z,75
2018-09-23T16:10:54.876Z,75
2018-09-23T16:12:04.731Z,75
2018-09-23T16:13:14.591Z,75
2018-09-23T16:14:24.451Z,75
2018-09-23T16:15:34.310Z,80
2018-09-23T16:16:44.441Z,80
2018-09-23T16:17:54.298Z,80
2018-09-23T16:19:04.718Z,80
2018-09-23T16:20:14.585Z,80
2018-09-23T16:21:24.461Z,80
2018-09-23T16:22:34.323Z,85
2018-09-23T16:23:44.454Z,95
2018-09-23T16:24:54.587Z,90
2018-09-23T16:26:05.221Z,90
2018-09-23T16:27:14.763Z,90
2018-09-23T16:28:25.044Z,90
2018-09-23T16:29:34.903Z,90
2018-09-23T16:30:45.046Z,85